sensor_id;sensor_type;location;lat;lon;timestamp;pressure;altitude;pressure_sealevel;temperature
82774;BMP280;72508;45.118;20.728;2024-01-16T00:12:28;99496.78;;;4.24
82774;BMP280;72508;45.118;20.728;2024-01-16T00:22:29;99528.66;;;4.18
82774;BMP280;72508;45.118;20.728;2024-01-16T00:32:31;99533.84;;;4.18
82774;BMP280;72508;45.118;20.728;2024-01-16T00:53:23;99559.03;;;4.09
82774;BMP280;72508;45.118;20.728;2024-01-16T01:03:25;99619.66;;;3.93
82774;BMP280;72508;45.118;20.728;2024-01-16T01:13:37;99632.88;;;3.98
82774;BMP280;72508;45.118;20.728;2024-01-16T01:23:39;99635.72;;;4.03
82774;BMP280;72508;45.118;20.728;2024-01-16T01:33:40;99653.53;;;3.91
82774;BMP280;72508;45.118;20.728;2024-01-16T01:54:26;99672.19;;;3.87
82774;BMP280;72508;45.118;20.728;2024-01-16T02:04:29;99691.66;;;3.83
82774;BMP280;72508;45.118;20.728;2024-01-16T02:14:46;99677.66;;;3.77
82774;BMP280;72508;45.118;20.728;2024-01-16T02:24:58;99681.31;;;3.83
82774;BMP280;72508;45.118;20.728;2024-01-16T02:35:00;99700.19;;;3.77
82774;BMP280;72508;45.118;20.728;2024-01-16T02:45:11;99733.56;;;3.71
82774;BMP280;72508;45.118;20.728;2024-01-16T02:55:23;99732.56;;;3.72
82774;BMP280;72508;45.118;20.728;2024-01-16T03:05:26;99721.06;;;3.75
82774;BMP280;72508;45.118;20.728;2024-01-16T03:15:28;99751.53;;;3.73
82774;BMP280;72508;45.118;20.728;2024-01-16T03:25:39;99776.84;;;3.78
82774;BMP280;72508;45.118;20.728;2024-01-16T03:35:40;99794.16;;;3.62
82774;BMP280;72508;45.118;20.728;2024-01-16T03:45:42;99794.03;;;3.55
82774;BMP280;72508;45.118;20.728;2024-01-16T03:55:45;99809.25;;;3.59
82774;BMP280;72508;45.118;20.728;2024-01-16T04:05:47;99813.97;;;3.55
82774;BMP280;72508;45.118;20.728;2024-01-16T04:15:49;99854.47;;;3.48
82774;BMP280;72508;45.118;20.728;2024-01-16T04:25:51;99848.97;;;3.51
82774;BMP280;72508;45.118;20.728;2024-01-16T04:35:53;99871.34;;;3.44
82774;BMP280;72508;45.118;20.728;2024-01-16T04:45:55;99907.41;;;3.45
82774;BMP280;72508;45.118;20.728;2024-01-16T04:56:06;99919.56;;;3.45
82774;BMP280;72508;45.118;20.728;2024-01-16T05:06:14;99929.25;;;3.43
82774;BMP280;72508;45.118;20.728;2024-01-16T05:16:16;99957.25;;;3.47
82774;BMP280;72508;45.118;20.728;2024-01-16T05:26:18;99964.03;;;3.48
82774;BMP280;72508;45.118;20.728;2024-01-16T05:36:20;99965.78;;;3.56
82774;BMP280;72508;45.118;20.728;2024-01-16T05:46:22;99976.94;;;3.57
82774;BMP280;72508;45.118;20.728;2024-01-16T05:56:23;99995.16;;;3.63
82774;BMP280;72508;45.118;20.728;2024-01-16T06:06:34;100025.63;;;3.61
82774;BMP280;72508;45.118;20.728;2024-01-16T06:16:36;100019.50;;;3.54
82774;BMP280;72508;45.118;20.728;2024-01-16T06:26:38;100063.72;;;3.84
82774;BMP280;72508;45.118;20.728;2024-01-16T06:36:40;100097.38;;;3.84
82774;BMP280;72508;45.118;20.728;2024-01-16T06:46:41;100106.16;;;3.83
82774;BMP280;72508;45.118;20.728;2024-01-16T06:56:43;100129.47;;;3.83
82774;BMP280;72508;45.118;20.728;2024-01-16T07:06:44;100163.78;;;3.93
82774;BMP280;72508;45.118;20.728;2024-01-16T07:16:46;100181.59;;;3.96
82774;BMP280;72508;45.118;20.728;2024-01-16T07:26:51;100199.41;;;3.91
82774;BMP280;72508;45.118;20.728;2024-01-16T07:36:55;100193.84;;;4.02
82774;BMP280;72508;45.118;20.728;2024-01-16T07:46:57;100230.72;;;4.29
82774;BMP280;72508;45.118;20.728;2024-01-16T07:56:59;100236.38;;;4.32
82774;BMP280;72508;45.118;20.728;2024-01-16T08:07:10;100250.34;;;4.54
82774;BMP280;72508;45.118;20.728;2024-01-16T08:17:12;100254.19;;;4.67
82774;BMP280;72508;45.118;20.728;2024-01-16T08:27:14;100254.19;;;4.67
82774;BMP280;72508;45.118;20.728;2024-01-16T08:37:17;100288.13;;;4.88
82774;BMP280;72508;45.118;20.728;2024-01-16T08:47:28;100301.78;;;5.13
82774;BMP280;72508;45.118;20.728;2024-01-16T08:57:50;100315.94;;;5.49
82774;BMP280;72508;45.118;20.728;2024-01-16T09:07:51;100330.91;;;6.14
82774;BMP280;72508;45.118;20.728;2024-01-16T09:17:54;100329.59;;;6.85
82774;BMP280;72508;45.118;20.728;2024-01-16T09:27:56;100342.03;;;7.54
82774;BMP280;72508;45.118;20.728;2024-01-16T09:37:57;100356.59;;;8.33
82774;BMP280;72508;45.118;20.728;2024-01-16T09:48:01;100362.75;;;8.73
82774;BMP280;72508;45.118;20.728;2024-01-16T09:58:05;100371.09;;;9.43
82774;BMP280;72508;45.118;20.728;2024-01-16T10:08:09;100370.06;;;9.91
82774;BMP280;72508;45.118;20.728;2024-01-16T10:18:29;100366.16;;;10.13
82774;BMP280;72508;45.118;20.728;2024-01-16T10:28:37;100352.22;;;10.65
82774;BMP280;72508;45.118;20.728;2024-01-16T10:38:40;100339.84;;;11.04
82774;BMP280;72508;45.118;20.728;2024-01-16T10:48:44;100339.78;;;11.60
82774;BMP280;72508;45.118;20.728;2024-01-16T11:09:42;100332.66;;;12.35
82774;BMP280;72508;45.118;20.728;2024-01-16T11:19:44;100342.94;;;13.02
82774;BMP280;72508;45.118;20.728;2024-01-16T11:29:51;100325.47;;;13.07
82774;BMP280;72508;45.118;20.728;2024-01-16T11:40:20;100325.81;;;13.46
82774;BMP280;72508;45.118;20.728;2024-01-16T11:50:29;100327.97;;;13.90
82774;BMP280;72508;45.118;20.728;2024-01-16T12:00:32;100329.03;;;14.05
82774;BMP280;72508;45.118;20.728;2024-01-16T12:10:46;100332.72;;;14.50
82774;BMP280;72508;45.118;20.728;2024-01-16T12:20:51;100338.63;;;14.91
82774;BMP280;72508;45.118;20.728;2024-01-16T12:30:53;100329.97;;;15.12
82774;BMP280;72508;45.118;20.728;2024-01-16T12:40:54;100325.69;;;15.06
82774;BMP280;72508;45.118;20.728;2024-01-16T12:51:03;100326.19;;;14.69
82774;BMP280;72508;45.118;20.728;2024-01-16T13:01:25;100334.66;;;14.09
82774;BMP280;72508;45.118;20.728;2024-01-16T13:11:27;100336.59;;;14.31
82774;BMP280;72508;45.118;20.728;2024-01-16T13:21:29;100333.06;;;14.70
82774;BMP280;72508;45.118;20.728;2024-01-16T13:31:30;100344.75;;;15.13
82774;BMP280;72508;45.118;20.728;2024-01-16T13:41:32;100342.56;;;15.05
82774;BMP280;72508;45.118;20.728;2024-01-16T13:51:34;100342.38;;;14.78
82774;BMP280;72508;45.118;20.728;2024-01-16T14:01:36;100339.06;;;12.92
82774;BMP280;72508;45.118;20.728;2024-01-16T14:11:38;100326.28;;;12.12
82774;BMP280;72508;45.118;20.728;2024-01-16T14:21:39;100307.88;;;11.82
82774;BMP280;72508;45.118;20.728;2024-01-16T14:31:41;100313.66;;;11.29
82774;BMP280;72508;45.118;20.728;2024-01-16T14:41:49;100301.91;;;10.88
82774;BMP280;72508;45.118;20.728;2024-01-16T14:52:38;100294.75;;;10.76
82774;BMP280;72508;45.118;20.728;2024-01-16T15:02:33;100301.34;;;10.47
82774;BMP280;72508;45.118;20.728;2024-01-16T15:12:45;100304.34;;;10.19
82774;BMP280;72508;45.118;20.728;2024-01-16T15:22:47;100312.09;;;9.81
82774;BMP280;72508;45.118;20.728;2024-01-16T15:32:53;100303.53;;;9.54
82774;BMP280;72508;45.118;20.728;2024-01-16T15:42:55;100313.81;;;9.22
82774;BMP280;72508;45.118;20.728;2024-01-16T15:52:58;100314.19;;;9.05
82774;BMP280;72508;45.118;20.728;2024-01-16T16:03:00;100310.56;;;8.93
82774;BMP280;72508;45.118;20.728;2024-01-16T16:13:21;100321.59;;;8.75
82774;BMP280;72508;45.118;20.728;2024-01-16T16:23:23;100331.38;;;8.60
82774;BMP280;72508;45.118;20.728;2024-01-16T16:33:25;100343.41;;;8.48
82774;BMP280;72508;45.118;20.728;2024-01-16T16:43:26;100346.16;;;8.33
82774;BMP280;72508;45.118;20.728;2024-01-16T16:53:28;100341.88;;;8.18
82774;BMP280;72508;45.118;20.728;2024-01-16T17:03:29;100319.94;;;8.06
82774;BMP280;72508;45.118;20.728;2024-01-16T17:13:41;100325.06;;;7.93
82774;BMP280;72508;45.118;20.728;2024-01-16T17:23:42;100332.44;;;7.82
82774;BMP280;72508;45.118;20.728;2024-01-16T17:34:01;100341.31;;;7.60
82774;BMP280;72508;45.118;20.728;2024-01-16T17:44:13;100349.25;;;7.52
82774;BMP280;72508;45.118;20.728;2024-01-16T17:54:15;100357.19;;;7.43
82774;BMP280;72508;45.118;20.728;2024-01-16T18:04:16;100360.94;;;7.34
82774;BMP280;72508;45.118;20.728;2024-01-16T18:14:18;100377.25;;;7.21
82774;BMP280;72508;45.118;20.728;2024-01-16T18:24:20;100360.53;;;6.94
82774;BMP280;72508;45.118;20.728;2024-01-16T18:34:22;100387.56;;;6.93
82774;BMP280;72508;45.118;20.728;2024-01-16T18:44:23;100376.81;;;6.81
82774;BMP280;72508;45.118;20.728;2024-01-16T18:54:25;100371.72;;;6.73
82774;BMP280;72508;45.118;20.728;2024-01-16T19:04:27;100366.19;;;6.62
82774;BMP280;72508;45.118;20.728;2024-01-16T19:14:30;100345.72;;;6.58
82774;BMP280;72508;45.118;20.728;2024-01-16T19:24:32;100354.22;;;6.52
82774;BMP280;72508;45.118;20.728;2024-01-16T19:34:33;100324.09;;;6.43
82774;BMP280;72508;45.118;20.728;2024-01-16T19:44:36;100319.25;;;6.40
82774;BMP280;72508;45.118;20.728;2024-01-16T19:54:37;100319.06;;;6.42
82774;BMP280;72508;45.118;20.728;2024-01-16T20:04:40;100316.41;;;6.35
82774;BMP280;72508;45.118;20.728;2024-01-16T20:14:42;100313.09;;;6.26
82774;BMP280;72508;45.118;20.728;2024-01-16T20:24:44;100321.06;;;6.25
82774;BMP280;72508;45.118;20.728;2024-01-16T20:34:46;100335.44;;;6.21
82774;BMP280;72508;45.118;20.728;2024-01-16T20:44:47;100343.75;;;6.16
82774;BMP280;72508;45.118;20.728;2024-01-16T20:54:49;100354.78;;;6.18
82774;BMP280;72508;45.118;20.728;2024-01-16T21:04:51;100344.47;;;6.10
82774;BMP280;72508;45.118;20.728;2024-01-16T21:14:52;100329.13;;;6.00
82774;BMP280;72508;45.118;20.728;2024-01-16T21:24:55;100334.41;;;5.92
82774;BMP280;72508;45.118;20.728;2024-01-16T21:34:57;100339.06;;;5.82
82774;BMP280;72508;45.118;20.728;2024-01-16T21:45:32;100320.19;;;5.65
82774;BMP280;72508;45.118;20.728;2024-01-16T21:55:48;100295.38;;;5.62
82774;BMP280;72508;45.118;20.728;2024-01-16T22:05:49;100270.91;;;5.56
82774;BMP280;72508;45.118;20.728;2024-01-16T22:15:51;100253.25;;;5.52
82774;BMP280;72508;45.118;20.728;2024-01-16T22:25:53;100212.16;;;5.32
82774;BMP280;72508;45.118;20.728;2024-01-16T22:35:54;100228.34;;;5.43
82774;BMP280;72508;45.118;20.728;2024-01-16T22:45:56;100208.97;;;5.30
82774;BMP280;72508;45.118;20.728;2024-01-16T22:55:58;100201.25;;;5.22
82774;BMP280;72508;45.118;20.728;2024-01-16T23:05:59;100199.41;;;5.08
82774;BMP280;72508;45.118;20.728;2024-01-16T23:16:02;100183.31;;;4.98
82774;BMP280;72508;45.118;20.728;2024-01-16T23:26:04;100174.06;;;4.95
82774;BMP280;72508;45.118;20.728;2024-01-16T23:36:25;100163.56;;;4.88
82774;BMP280;72508;45.118;20.728;2024-01-16T23:47:03;100138.28;;;4.82
82774;BMP280;72508;45.118;20.728;2024-01-16T23:57:09;100118.69;;;4.80
